Amberg, Wisconsin
Current Conditions -  °F | °C
As of 8:33 AM on Tuesday 21 Oct 2014 (Local Time) from KIMT Reporting Station
Overcast Overcast  
Wind Chill: 33°   Ceiling: 1600
Heat Index: 40°   Visibility: 10mi
Dew Point: 33°   Wind: 10mph
Humidity: 77%   Direction: 10°N
Pressure: 30.22"   Gusts: NA
Location:  45.5°N, 87.99°W
Report Text: KIMT 211333Z AUTO 01009KT 10SM OVC016 04/01 A3022 RMK AO2 T00440006
Loading
Personal Weather Stations






























Interactive Weather Map
Tropical Storm Tracking
New forecast layout! Learn more

10-Day Weather Forecast

Advertisements
Track Severe Weather on mobile